sensor_id;sensor_type;location;lat;lon;timestamp;pressure;altitude;pressure_sealevel;temperature;humidity
75668;BME280;64266;48.798;44.756;2023-03-09T00:04:54;101176.25;;;5.82;68.87
75668;BME280;64266;48.798;44.756;2023-03-09T00:09:57;101237.56;;;6.13;69.23
75668;BME280;64266;48.798;44.756;2023-03-09T00:15:00;101233.84;;;6.08;69.13
75668;BME280;64266;48.798;44.756;2023-03-09T00:20:04;101236.59;;;6.14;70.30
75668;BME280;64266;48.798;44.756;2023-03-09T00:25:21;101222.47;;;6.07;70.23
75668;BME280;64266;48.798;44.756;2023-03-09T00:30:24;101199.50;;;6.01;70.32
75668;BME280;64266;48.798;44.756;2023-03-09T00:35:27;101212.25;;;5.89;70.22
75668;BME280;64266;48.798;44.756;2023-03-09T00:40:29;101226.81;;;6.00;70.79
75668;BME280;64266;48.798;44.756;2023-03-09T00:45:34;101232.88;;;6.00;70.69
75668;BME280;64266;48.798;44.756;2023-03-09T00:50:36;101194.03;;;5.80;71.50
75668;BME280;64266;48.798;44.756;2023-03-09T00:55:39;101211.09;;;5.92;70.62
75668;BME280;64266;48.798;44.756;2023-03-09T01:00:42;101204.84;;;5.93;70.93
75668;BME280;64266;48.798;44.756;2023-03-09T01:05:44;101202.09;;;5.78;70.63
75668;BME280;64266;48.798;44.756;2023-03-09T01:10:46;101184.44;;;5.64;71.49
75668;BME280;64266;48.798;44.756;2023-03-09T01:15:49;101189.56;;;5.88;70.98
75668;BME280;64266;48.798;44.756;2023-03-09T01:20:51;101226.59;;;5.79;72.13
75668;BME280;64266;48.798;44.756;2023-03-09T01:25:54;101192.38;;;5.87;71.03
75668;BME280;64266;48.798;44.756;2023-03-09T01:30:57;101202.34;;;5.91;71.81
75668;BME280;64266;48.798;44.756;2023-03-09T01:35:59;101199.25;;;5.88;71.04
75668;BME280;64266;48.798;44.756;2023-03-09T01:41:04;101132.41;;;5.52;71.06
75668;BME280;64266;48.798;44.756;2023-03-09T01:51:27;101205.34;;;5.88;70.80
75668;BME280;64266;48.798;44.756;2023-03-09T01:56:33;101172.84;;;5.73;70.80
75668;BME280;64266;48.798;44.756;2023-03-09T02:01:40;101181.66;;;5.66;71.66
75668;BME280;64266;48.798;44.756;2023-03-09T02:06:44;101184.22;;;5.74;70.66
75668;BME280;64266;48.798;44.756;2023-03-09T02:11:48;101175.38;;;5.67;72.44
75668;BME280;64266;48.798;44.756;2023-03-09T02:16:51;101219.41;;;5.73;72.97
75668;BME280;64266;48.798;44.756;2023-03-09T02:21:54;101230.38;;;6.07;71.07
75668;BME280;64266;48.798;44.756;2023-03-09T02:32:13;101217.56;;;5.81;71.53
75668;BME280;64266;48.798;44.756;2023-03-09T02:37:30;101212.16;;;5.75;72.91
75668;BME280;64266;48.798;44.756;2023-03-09T02:42:42;101231.03;;;5.86;71.50
75668;BME280;64266;48.798;44.756;2023-03-09T02:47:47;101205.19;;;5.82;72.45
75668;BME280;64266;48.798;44.756;2023-03-09T02:52:51;101190.44;;;5.73;70.92
75668;BME280;64266;48.798;44.756;2023-03-09T02:57:54;101198.06;;;5.68;71.33
75668;BME280;64266;48.798;44.756;2023-03-09T03:02:57;101191.28;;;5.73;71.65
75668;BME280;64266;48.798;44.756;2023-03-09T03:08:03;101195.66;;;5.58;71.34
75668;BME280;64266;48.798;44.756;2023-03-09T03:13:05;101201.19;;;5.63;71.89
75668;BME280;64266;48.798;44.756;2023-03-09T03:18:09;101179.63;;;5.45;71.94
75668;BME280;64266;48.798;44.756;2023-03-09T03:23:12;101212.94;;;5.53;72.78
75668;BME280;64266;48.798;44.756;2023-03-09T03:28:22;101235.94;;;5.59;72.49
75668;BME280;64266;48.798;44.756;2023-03-09T03:33:31;101229.72;;;5.52;72.25
75668;BME280;64266;48.798;44.756;2023-03-09T03:38:36;101207.97;;;5.27;73.32
75668;BME280;64266;48.798;44.756;2023-03-09T03:43:39;101218.28;;;5.36;72.91
75668;BME280;64266;48.798;44.756;2023-03-09T03:48:44;101209.34;;;5.23;73.67
75668;BME280;64266;48.798;44.756;2023-03-09T03:53:50;101201.66;;;5.13;74.13
75668;BME280;64266;48.798;44.756;2023-03-09T03:58:53;101195.66;;;5.27;73.64
75668;BME280;64266;48.798;44.756;2023-03-09T04:03:57;101202.72;;;5.27;73.52
75668;BME280;64266;48.798;44.756;2023-03-09T04:09:00;101210.94;;;5.32;72.77
75668;BME280;64266;48.798;44.756;2023-03-09T04:14:03;101190.25;;;5.29;72.76
75668;BME280;64266;48.798;44.756;2023-03-09T04:19:06;101192.22;;;5.27;73.12
75668;BME280;64266;48.798;44.756;2023-03-09T04:24:11;101235.31;;;5.57;73.22
75668;BME280;64266;48.798;44.756;2023-03-09T04:29:13;101206.53;;;5.55;72.93
75668;BME280;64266;48.798;44.756;2023-03-09T04:34:17;101210.63;;;5.58;72.91
75668;BME280;64266;48.798;44.756;2023-03-09T04:39:21;101214.28;;;5.48;73.09
75668;BME280;64266;48.798;44.756;2023-03-09T04:44:24;101210.34;;;5.44;73.49
75668;BME280;64266;48.798;44.756;2023-03-09T04:49:27;101228.91;;;5.51;73.28
75668;BME280;64266;48.798;44.756;2023-03-09T04:54:33;101242.59;;;5.69;72.09
75668;BME280;64266;48.798;44.756;2023-03-09T04:59:37;101208.31;;;5.63;72.79
75668;BME280;64266;48.798;44.756;2023-03-09T05:04:41;101222.34;;;5.78;72.08
75668;BME280;64266;48.798;44.756;2023-03-09T05:09:43;101220.44;;;5.94;71.99
75668;BME280;64266;48.798;44.756;2023-03-09T05:14:47;101217.69;;;6.11;71.60
75668;BME280;64266;48.798;44.756;2023-03-09T05:19:54;101181.31;;;5.91;71.21
75668;BME280;64266;48.798;44.756;2023-03-09T05:24:58;101158.31;;;5.63;71.88
75668;BME280;64266;48.798;44.756;2023-03-09T05:30:03;101196.63;;;6.11;71.29
75668;BME280;64266;48.798;44.756;2023-03-09T05:35:14;101143.19;;;5.87;70.89
75668;BME280;64266;48.798;44.756;2023-03-09T05:40:18;101133.28;;;5.89;71.13
75668;BME280;64266;48.798;44.756;2023-03-09T05:45:33;101145.44;;;6.28;70.00
75668;BME280;64266;48.798;44.756;2023-03-09T05:50:37;101180.72;;;6.56;69.45
75668;BME280;64266;48.798;44.756;2023-03-09T05:55:41;101174.47;;;6.57;69.66
75668;BME280;64266;48.798;44.756;2023-03-09T06:00:51;101194.44;;;6.66;69.38
75668;BME280;64266;48.798;44.756;2023-03-09T06:06:04;101179.91;;;6.85;69.09
75668;BME280;64266;48.798;44.756;2023-03-09T06:11:13;101229.25;;;7.05;68.26
75668;BME280;64266;48.798;44.756;2023-03-09T06:16:17;101202.97;;;7.12;67.83
75668;BME280;64266;48.798;44.756;2023-03-09T06:21:22;101076.69;;;6.37;67.77
75668;BME280;64266;48.798;44.756;2023-03-09T06:26:27;101194.16;;;7.20;67.33
75668;BME280;64266;48.798;44.756;2023-03-09T06:31:35;101156.16;;;7.50;66.74
75668;BME280;64266;48.798;44.756;2023-03-09T06:36:40;101174.44;;;7.73;65.37
75668;BME280;64266;48.798;44.756;2023-03-09T06:41:45;101185.25;;;7.99;64.62
75668;BME280;64266;48.798;44.756;2023-03-09T06:46:57;101176.00;;;8.65;62.59
75668;BME280;64266;48.798;44.756;2023-03-09T06:52:03;101191.03;;;9.46;60.63
75668;BME280;64266;48.798;44.756;2023-03-09T06:57:07;101095.66;;;9.07;59.77
75668;BME280;64266;48.798;44.756;2023-03-09T07:02:14;101138.56;;;10.09;58.78
75668;BME280;64266;48.798;44.756;2023-03-09T07:07:17;101163.56;;;10.85;56.45
75668;BME280;64266;48.798;44.756;2023-03-09T07:12:21;101158.78;;;11.07;55.27
75668;BME280;64266;48.798;44.756;2023-03-09T07:17:23;101154.19;;;11.27;55.78
75668;BME280;64266;48.798;44.756;2023-03-09T07:22:26;101154.00;;;11.28;55.36
75668;BME280;64266;48.798;44.756;2023-03-09T07:27:29;101155.59;;;10.85;55.26
75668;BME280;64266;48.798;44.756;2023-03-09T07:32:42;101110.38;;;10.60;55.96
75668;BME280;64266;48.798;44.756;2023-03-09T07:37:50;101097.69;;;10.69;55.68
75668;BME280;64266;48.798;44.756;2023-03-09T07:42:54;101096.00;;;10.81;55.79
75668;BME280;64266;48.798;44.756;2023-03-09T07:48:15;101125.75;;;10.96;55.59
75668;BME280;64266;48.798;44.756;2023-03-09T07:53:18;101113.19;;;10.72;55.74
75668;BME280;64266;48.798;44.756;2023-03-09T07:58:21;101091.91;;;10.85;56.03
75668;BME280;64266;48.798;44.756;2023-03-09T08:03:26;101080.44;;;10.98;54.56
75668;BME280;64266;48.798;44.756;2023-03-09T08:08:34;101053.53;;;10.37;54.05
75668;BME280;64266;48.798;44.756;2023-03-09T08:13:37;101126.88;;;10.69;55.45
75668;BME280;64266;48.798;44.756;2023-03-09T08:18:40;101114.94;;;10.27;56.81
75668;BME280;64266;48.798;44.756;2023-03-09T08:23:43;101128.19;;;10.33;57.52
75668;BME280;64266;48.798;44.756;2023-03-09T08:28:46;101139.97;;;10.38;57.49
75668;BME280;64266;48.798;44.756;2023-03-09T08:33:49;101097.00;;;9.96;57.38
75668;BME280;64266;48.798;44.756;2023-03-09T08:38:54;101073.75;;;10.05;57.32
75668;BME280;64266;48.798;44.756;2023-03-09T08:43:58;101155.09;;;10.24;58.07
75668;BME280;64266;48.798;44.756;2023-03-09T08:49:02;101142.88;;;10.16;58.70
75668;BME280;64266;48.798;44.756;2023-03-09T08:54:06;101147.56;;;10.21;58.77
75668;BME280;64266;48.798;44.756;2023-03-09T08:59:11;101142.22;;;10.34;58.53
75668;BME280;64266;48.798;44.756;2023-03-09T09:04:15;101141.44;;;10.27;58.58
75668;BME280;64266;48.798;44.756;2023-03-09T09:09:21;101096.59;;;10.19;57.51
75668;BME280;64266;48.798;44.756;2023-03-09T09:14:25;101119.75;;;10.63;56.78
75668;BME280;64266;48.798;44.756;2023-03-09T09:19:29;101101.59;;;10.60;56.29
75668;BME280;64266;48.798;44.756;2023-03-09T09:24:35;101109.94;;;10.63;57.37
75668;BME280;64266;48.798;44.756;2023-03-09T09:29:39;101081.59;;;10.64;57.19
75668;BME280;64266;48.798;44.756;2023-03-09T09:34:44;101104.50;;;11.03;56.84
75668;BME280;64266;48.798;44.756;2023-03-09T09:39:48;101085.28;;;11.07;56.59
75668;BME280;64266;48.798;44.756;2023-03-09T09:44:52;101101.09;;;11.27;55.53
75668;BME280;64266;48.798;44.756;2023-03-09T09:50:03;101078.13;;;11.39;57.22
75668;BME280;64266;48.798;44.756;2023-03-09T09:55:24;101065.84;;;11.44;55.75
75668;BME280;64266;48.798;44.756;2023-03-09T10:00:48;101045.31;;;11.58;55.37
75668;BME280;64266;48.798;44.756;2023-03-09T10:06:18;101071.69;;;11.84;54.15
75668;BME280;64266;48.798;44.756;2023-03-09T10:16:39;101016.56;;;11.80;54.52
75668;BME280;64266;48.798;44.756;2023-03-09T10:21:55;101046.25;;;11.95;54.58
75668;BME280;64266;48.798;44.756;2023-03-09T10:27:03;101041.31;;;11.99;54.29
75668;BME280;64266;48.798;44.756;2023-03-09T10:37:34;101037.03;;;12.16;53.24
75668;BME280;64266;48.798;44.756;2023-03-09T10:42:39;101027.59;;;12.20;53.12
75668;BME280;64266;48.798;44.756;2023-03-09T10:53:40;100994.13;;;12.48;53.35
75668;BME280;64266;48.798;44.756;2023-03-09T10:58:45;100992.13;;;12.44;53.60
75668;BME280;64266;48.798;44.756;2023-03-09T11:03:48;100956.63;;;12.20;53.25
75668;BME280;64266;48.798;44.756;2023-03-09T11:08:58;100984.28;;;12.49;52.93
75668;BME280;64266;48.798;44.756;2023-03-09T11:14:28;100967.13;;;12.63;53.58
75668;BME280;64266;48.798;44.756;2023-03-09T11:19:32;100926.66;;;12.43;53.49
75668;BME280;64266;48.798;44.756;2023-03-09T11:24:38;100937.38;;;12.55;52.56
75668;BME280;64266;48.798;44.756;2023-03-09T11:29:50;100951.81;;;12.59;52.50
75668;BME280;64266;48.798;44.756;2023-03-09T11:34:55;100949.97;;;12.59;51.70
75668;BME280;64266;48.798;44.756;2023-03-09T11:40:21;100954.19;;;12.67;51.97
75668;BME280;64266;48.798;44.756;2023-03-09T11:45:28;100948.88;;;12.67;51.71
75668;BME280;64266;48.798;44.756;2023-03-09T11:50:42;100950.28;;;12.81;52.33
75668;BME280;64266;48.798;44.756;2023-03-09T11:55:50;100949.16;;;12.88;51.86
75668;BME280;64266;48.798;44.756;2023-03-09T12:01:08;100934.59;;;12.91;52.85
75668;BME280;64266;48.798;44.756;2023-03-09T12:06:44;100947.41;;;12.82;52.59
75668;BME280;64266;48.798;44.756;2023-03-09T12:11:54;100927.56;;;12.67;52.50
75668;BME280;64266;48.798;44.756;2023-03-09T12:17:03;100929.69;;;12.76;52.94
75668;BME280;64266;48.798;44.756;2023-03-09T12:22:37;100907.13;;;12.67;52.94
75668;BME280;64266;48.798;44.756;2023-03-09T12:27:50;100919.16;;;12.70;52.99
75668;BME280;64266;48.798;44.756;2023-03-09T12:32:55;100918.22;;;12.76;53.45
75668;BME280;64266;48.798;44.756;2023-03-09T12:48:28;100900.91;;;12.96;52.66
75668;BME280;64266;48.798;44.756;2023-03-09T12:53:59;100901.97;;;13.07;52.46
75668;BME280;64266;48.798;44.756;2023-03-09T12:59:08;100902.38;;;13.22;52.75
75668;BME280;64266;48.798;44.756;2023-03-09T13:04:21;100903.19;;;13.34;52.31
75668;BME280;64266;48.798;44.756;2023-03-09T13:09:34;100900.88;;;13.38;52.54
75668;BME280;64266;48.798;44.756;2023-03-09T13:19:54;100889.63;;;13.24;52.59
75668;BME280;64266;48.798;44.756;2023-03-09T13:26:01;100896.06;;;13.05;53.33
75668;BME280;64266;48.798;44.756;2023-03-09T13:30:47;100887.84;;;12.95;54.01
75668;BME280;64266;48.798;44.756;2023-03-09T13:36:30;100889.69;;;13.06;52.83
75668;BME280;64266;48.798;44.756;2023-03-09T13:41:37;100895.16;;;13.11;53.48
75668;BME280;64266;48.798;44.756;2023-03-09T13:46:46;100904.09;;;13.17;53.31
75668;BME280;64266;48.798;44.756;2023-03-09T13:52:00;100904.75;;;13.00;53.99
75668;BME280;64266;48.798;44.756;2023-03-09T13:57:25;100904.59;;;12.95;53.25
75668;BME280;64266;48.798;44.756;2023-03-09T14:02:32;100811.63;;;12.47;54.10
75668;BME280;64266;48.798;44.756;2023-03-09T14:07:42;100906.13;;;12.91;53.83
75668;BME280;64266;48.798;44.756;2023-03-09T14:12:52;100886.63;;;12.68;54.88
75668;BME280;64266;48.798;44.756;2023-03-09T14:17:57;100866.84;;;12.75;55.05
75668;BME280;64266;48.798;44.756;2023-03-09T14:23:16;100774.44;;;12.18;54.31
75668;BME280;64266;48.798;44.756;2023-03-09T14:28:28;100852.72;;;12.63;54.65
75668;BME280;64266;48.798;44.756;2023-03-09T14:33:31;100889.41;;;12.73;54.49
75668;BME280;64266;48.798;44.756;2023-03-09T14:38:36;100930.06;;;12.91;54.83
75668;BME280;64266;48.798;44.756;2023-03-09T14:43:41;100860.88;;;12.38;55.60
75668;BME280;64266;48.798;44.756;2023-03-09T14:48:57;100816.50;;;11.91;56.19
75668;BME280;64266;48.798;44.756;2023-03-09T14:54:14;100918.13;;;12.52;56.93
75668;BME280;64266;48.798;44.756;2023-03-09T14:59:19;100887.88;;;12.24;56.83
75668;BME280;64266;48.798;44.756;2023-03-09T15:04:24;100831.94;;;11.64;56.90
75668;BME280;64266;48.798;44.756;2023-03-09T15:09:27;100869.59;;;11.79;58.37
75668;BME280;64266;48.798;44.756;2023-03-09T15:14:33;100911.03;;;11.87;57.86
75668;BME280;64266;48.798;44.756;2023-03-09T15:19:38;100815.19;;;11.09;58.94
75668;BME280;64266;48.798;44.756;2023-03-09T15:24:41;100893.09;;;11.39;59.21
75668;BME280;64266;48.798;44.756;2023-03-09T15:29:44;100874.63;;;11.26;59.17
75668;BME280;64266;48.798;44.756;2023-03-09T15:34:48;100882.28;;;11.16;59.57
75668;BME280;64266;48.798;44.756;2023-03-09T15:39:51;100825.66;;;10.79;59.70
75668;BME280;64266;48.798;44.756;2023-03-09T15:44:53;100888.28;;;11.05;60.09
75668;BME280;64266;48.798;44.756;2023-03-09T15:49:56;100804.09;;;10.45;59.06
75668;BME280;64266;48.798;44.756;2023-03-09T15:54:59;100869.94;;;10.79;61.14
75668;BME280;64266;48.798;44.756;2023-03-09T16:00:03;100937.25;;;11.09;61.37
75668;BME280;64266;48.798;44.756;2023-03-09T16:05:08;100906.94;;;10.92;61.13
75668;BME280;64266;48.798;44.756;2023-03-09T16:10:11;100874.25;;;10.73;61.35
75668;BME280;64266;48.798;44.756;2023-03-09T16:15:14;100948.22;;;11.19;61.29
75668;BME280;64266;48.798;44.756;2023-03-09T16:20:18;100823.16;;;10.28;61.53
75668;BME280;64266;48.798;44.756;2023-03-09T16:25:20;100936.56;;;10.89;63.17
75668;BME280;64266;48.798;44.756;2023-03-09T16:30:24;100862.78;;;10.55;62.16
75668;BME280;64266;48.798;44.756;2023-03-09T16:35:27;100845.91;;;10.43;62.11
75668;BME280;64266;48.798;44.756;2023-03-09T16:40:30;100918.66;;;10.84;61.99
75668;BME280;64266;48.798;44.756;2023-03-09T16:45:34;100813.03;;;10.12;62.56
75668;BME280;64266;48.798;44.756;2023-03-09T16:50:39;100885.06;;;10.41;62.54
75668;BME280;64266;48.798;44.756;2023-03-09T16:55:42;100834.44;;;10.11;63.34
75668;BME280;64266;48.798;44.756;2023-03-09T17:00:45;100823.91;;;9.98;63.07
75668;BME280;64266;48.798;44.756;2023-03-09T17:05:48;100865.03;;;10.13;63.94
75668;BME280;64266;48.798;44.756;2023-03-09T17:10:51;100793.72;;;9.61;64.02
75668;BME280;64266;48.798;44.756;2023-03-09T17:15:57;100856.09;;;10.01;64.37
75668;BME280;64266;48.798;44.756;2023-03-09T17:21:00;100947.81;;;10.53;64.82
75668;BME280;64266;48.798;44.756;2023-03-09T17:26:05;100812.03;;;9.69;64.50
75668;BME280;64266;48.798;44.756;2023-03-09T17:31:14;100915.50;;;10.31;65.14
75668;BME280;64266;48.798;44.756;2023-03-09T17:36:17;100798.47;;;9.46;65.67
75668;BME280;64266;48.798;44.756;2023-03-09T17:41:21;100843.56;;;9.77;65.69
75668;BME280;64266;48.798;44.756;2023-03-09T17:46:24;100889.28;;;10.10;64.72
75668;BME280;64266;48.798;44.756;2023-03-09T17:51:27;100939.16;;;10.33;66.44
75668;BME280;64266;48.798;44.756;2023-03-09T17:56:30;100914.53;;;10.13;66.03
75668;BME280;64266;48.798;44.756;2023-03-09T18:01:33;100825.09;;;9.51;66.63
75668;BME280;64266;48.798;44.756;2023-03-09T18:06:36;100888.41;;;9.72;67.08
75668;BME280;64266;48.798;44.756;2023-03-09T18:11:39;100787.78;;;9.01;66.82
75668;BME280;64266;48.798;44.756;2023-03-09T18:16:42;100900.84;;;9.65;66.48
75668;BME280;64266;48.798;44.756;2023-03-09T18:21:47;100831.31;;;9.18;67.46
75668;BME280;64266;48.798;44.756;2023-03-09T18:26:50;100789.22;;;8.97;66.86
75668;BME280;64266;48.798;44.756;2023-03-09T18:31:53;100929.31;;;9.76;66.48
75668;BME280;64266;48.798;44.756;2023-03-09T18:36:55;100766.25;;;8.65;67.68
75668;BME280;64266;48.798;44.756;2023-03-09T18:41:58;100750.84;;;8.42;68.02
75668;BME280;64266;48.798;44.756;2023-03-09T18:47:01;100788.03;;;8.54;68.64
75668;BME280;64266;48.798;44.756;2023-03-09T18:52:06;100887.28;;;9.09;68.36
75668;BME280;64266;48.798;44.756;2023-03-09T18:57:09;100915.75;;;9.26;68.18
75668;BME280;64266;48.798;44.756;2023-03-09T19:02:13;100930.81;;;9.26;68.85
75668;BME280;64266;48.798;44.756;2023-03-09T19:07:16;100901.72;;;9.00;68.90
75668;BME280;64266;48.798;44.756;2023-03-09T19:12:19;100840.69;;;8.75;69.53
75668;BME280;64266;48.798;44.756;2023-03-09T19:17:22;100805.28;;;8.43;69.43
75668;BME280;64266;48.798;44.756;2023-03-09T19:22:28;100921.06;;;9.00;70.17
75668;BME280;64266;48.798;44.756;2023-03-09T19:27:32;100882.78;;;8.83;69.60
75668;BME280;64266;48.798;44.756;2023-03-09T19:32:34;100853.50;;;8.71;69.05
75668;BME280;64266;48.798;44.756;2023-03-09T19:37:38;100941.41;;;9.26;70.47
75668;BME280;64266;48.798;44.756;2023-03-09T19:42:44;100777.41;;;8.21;69.22
75668;BME280;64266;48.798;44.756;2023-03-09T19:47:49;100895.84;;;9.04;69.34
75668;BME280;64266;48.798;44.756;2023-03-09T19:52:52;100845.38;;;8.73;70.47
75668;BME280;64266;48.798;44.756;2023-03-09T19:57:55;100846.81;;;8.76;69.93
75668;BME280;64266;48.798;44.756;2023-03-09T20:02:59;100889.09;;;9.08;69.56
75668;BME280;64266;48.798;44.756;2023-03-09T20:08:02;100802.84;;;8.68;70.39
75668;BME280;64266;48.798;44.756;2023-03-09T20:13:05;100751.44;;;8.44;71.24
75668;BME280;64266;48.798;44.756;2023-03-09T20:18:08;100777.06;;;8.70;69.88
75668;BME280;64266;48.798;44.756;2023-03-09T20:23:11;100834.38;;;9.02;70.23
75668;BME280;64266;48.798;44.756;2023-03-09T20:28:14;100893.94;;;9.51;68.88
75668;BME280;64266;48.798;44.756;2023-03-09T20:33:17;100874.56;;;9.57;69.75
75668;BME280;64266;48.798;44.756;2023-03-09T20:38:20;100774.97;;;8.98;68.44
75668;BME280;64266;48.798;44.756;2023-03-09T20:43:23;100865.84;;;9.56;69.30
75668;BME280;64266;48.798;44.756;2023-03-09T20:48:28;100863.78;;;9.65;69.40
75668;BME280;64266;48.798;44.756;2023-03-09T20:53:31;100835.69;;;9.51;69.03
75668;BME280;64266;48.798;44.756;2023-03-09T20:58:36;100858.06;;;9.68;68.97
75668;BME280;64266;48.798;44.756;2023-03-09T21:03:40;100788.38;;;9.16;69.32
75668;BME280;64266;48.798;44.756;2023-03-09T21:08:44;100717.66;;;8.79;68.87
75668;BME280;64266;48.798;44.756;2023-03-09T21:13:50;100796.88;;;9.32;68.94
75668;BME280;64266;48.798;44.756;2023-03-09T21:18:53;100802.34;;;9.37;69.34
75668;BME280;64266;48.798;44.756;2023-03-09T21:23:56;100847.50;;;9.61;68.95
75668;BME280;64266;48.798;44.756;2023-03-09T21:35:20;100800.16;;;9.27;68.90
75668;BME280;64266;48.798;44.756;2023-03-09T21:40:27;100849.56;;;9.46;69.65
75668;BME280;64266;48.798;44.756;2023-03-09T21:45:30;100729.06;;;8.66;69.31
75668;BME280;64266;48.798;44.756;2023-03-09T21:50:34;100775.38;;;8.95;69.91
75668;BME280;64266;48.798;44.756;2023-03-09T21:55:38;100746.13;;;8.77;69.02
75668;BME280;64266;48.798;44.756;2023-03-09T22:00:46;100681.91;;;8.17;69.48
75668;BME280;64266;48.798;44.756;2023-03-09T22:05:49;100790.06;;;8.85;70.16
75668;BME280;64266;48.798;44.756;2023-03-09T22:10:53;100843.31;;;9.08;71.04
75668;BME280;64266;48.798;44.756;2023-03-09T22:15:56;100803.47;;;8.96;70.24
75668;BME280;64266;48.798;44.756;2023-03-09T22:26:54;100698.34;;;8.26;70.80
75668;BME280;64266;48.798;44.756;2023-03-09T22:32:00;100720.53;;;8.45;70.09
75668;BME280;64266;48.798;44.756;2023-03-09T22:43:02;100795.16;;;8.73;71.29
75668;BME280;64266;48.798;44.756;2023-03-09T22:48:05;100774.81;;;8.67;70.27
75668;BME280;64266;48.798;44.756;2023-03-09T22:53:08;100840.47;;;9.03;70.33
75668;BME280;64266;48.798;44.756;2023-03-09T22:58:16;100762.41;;;8.48;71.00
75668;BME280;64266;48.798;44.756;2023-03-09T23:03:20;100773.59;;;8.63;70.86
75668;BME280;64266;48.798;44.756;2023-03-09T23:08:23;100730.47;;;8.23;70.85
75668;BME280;64266;48.798;44.756;2023-03-09T23:13:52;100830.31;;;8.93;70.59
75668;BME280;64266;48.798;44.756;2023-03-09T23:18:56;100733.50;;;8.13;71.70
75668;BME280;64266;48.798;44.756;2023-03-09T23:24:00;100755.47;;;8.34;70.25
75668;BME280;64266;48.798;44.756;2023-03-09T23:29:03;100681.88;;;7.91;70.86
75668;BME280;64266;48.798;44.756;2023-03-09T23:34:07;100810.38;;;8.71;70.34
75668;BME280;64266;48.798;44.756;2023-03-09T23:39:10;100717.25;;;8.10;70.62
75668;BME280;64266;48.798;44.756;2023-03-09T23:44:14;100697.75;;;8.04;71.45
75668;BME280;64266;48.798;44.756;2023-03-09T23:49:17;100703.44;;;8.14;70.62
75668;BME280;64266;48.798;44.756;2023-03-09T23:54:45;100796.16;;;8.72;70.67
75668;BME280;64266;48.798;44.756;2023-03-09T23:59:52;100794.94;;;8.75;71.79
